Time,TemperatureF,DewpointF,PressureIn,WindDirection,WindDirectionDegrees,WindSpeedMPH,WindSpeedGustMPH,Humidity,HourlyPrecipIn,Conditions,Clouds,dailyrainin,SoftwareType,DateUTC
2013-06-05 00:02:00,86.0,40.0,29.88,WNW,297,0.0,1.0,20,-99.99,,,-99.99,,2013-06-05 06:02:00,
2013-06-05 00:12:00,86.0,40.0,29.88,WNW,297,0.0,1.0,20,-99.99,,,-99.99,,2013-06-05 06:12:00,
2013-06-05 00:22:00,85.0,41.0,29.89,North,0,0.0,0.0,21,-99.99,,,-99.99,,2013-06-05 06:22:00,
2013-06-05 00:32:00,82.0,46.0,29.89,North,0,0.0,0.0,28,-99.99,,,-99.99,,2013-06-05 06:32:00,
2013-06-05 00:42:00,82.0,46.0,29.89,North,0,0.0,0.0,28,-99.99,,,-99.99,,2013-06-05 06:42:00,
2013-06-05 00:52:00,82.0,44.0,29.89,WSW,238,0.0,3.0,26,-99.99,,,-99.99,,2013-06-05 06:52:00,
2013-06-05 01:02:00,81.0,45.0,29.89,North,0,0.0,0.0,28,-99.99,,,-99.99,,2013-06-05 07:02:00,
2013-06-05 01:12:00,81.0,45.0,29.89,North,0,0.0,0.0,28,-99.99,,,-99.99,,2013-06-05 07:12:00,
2013-06-05 01:22:00,80.0,46.0,29.89,South,191,0.0,4.0,30,-99.99,,,-99.99,,2013-06-05 07:22:00,
2013-06-05 01:32:00,80.0,48.0,29.89,WSW,255,1.0,2.0,33,-99.99,,,-99.99,,2013-06-05 07:32:00,
2013-06-05 01:42:00,80.0,48.0,29.89,WSW,255,1.0,2.0,33,-99.99,,,-99.99,,2013-06-05 07:42:00,
2013-06-05 01:52:00,80.0,44.0,29.89,SSW,207,2.0,5.0,28,-99.99,,,-99.99,,2013-06-05 07:52:00,
2013-06-05 02:02:00,80.0,44.0,29.89,WSW,246,1.0,3.0,28,-99.99,,,-99.99,,2013-06-05 08:02:00,
2013-06-05 02:12:00,80.0,44.0,29.89,WSW,246,1.0,3.0,28,-99.99,,,-99.99,,2013-06-05 08:12:00,
2013-06-05 02:22:00,80.0,42.0,29.89,SW,233,3.0,6.0,26,-99.99,,,-99.99,,2013-06-05 08:22:00,
2013-06-05 02:32:00,81.0,42.0,29.88,West,267,1.0,4.0,25,-99.99,,,-99.99,,2013-06-05 08:32:00,
2013-06-05 02:42:00,81.0,42.0,29.88,West,267,1.0,4.0,25,-99.99,,,-99.99,,2013-06-05 08:42:00,
2013-06-05 02:52:00,80.0,45.0,29.88,West,260,1.0,3.0,29,-99.99,,,-99.99,,2013-06-05 08:52:00,
2013-06-05 03:02:00,79.0,43.0,29.88,West,276,0.0,3.0,28,-99.99,,,-99.99,,2013-06-05 09:02:00,
2013-06-05 03:12:00,79.0,43.0,29.88,West,276,0.0,3.0,28,-99.99,,,-99.99,,2013-06-05 09:12:00,
2013-06-05 03:22:00,79.0,42.0,29.88,West,260,1.0,2.0,27,-99.99,,,-99.99,,2013-06-05 09:22:00,
2013-06-05 03:32:00,79.0,38.0,29.88,WNW,301,4.0,8.0,23,-99.99,,,-99.99,,2013-06-05 09:32:00,
2013-06-05 03:42:00,79.0,38.0,29.88,WNW,301,4.0,8.0,23,-99.99,,,-99.99,,2013-06-05 09:42:00,
2013-06-05 03:52:00,81.0,36.0,29.88,WSW,245,4.0,8.0,20,-99.99,,,-99.99,,2013-06-05 09:52:00,
2013-06-05 04:03:00,80.0,40.0,29.88,WSW,253,1.0,4.0,24,-99.99,,,-99.99,,2013-06-05 10:03:00,
2013-06-05 04:12:00,80.0,40.0,29.88,WSW,253,1.0,4.0,24,-99.99,,,-99.99,,2013-06-05 10:12:00,
2013-06-05 04:22:00,79.0,38.0,29.88,West,263,3.0,5.0,23,-99.99,,,-99.99,,2013-06-05 10:22:00,
2013-06-05 04:33:00,78.0,38.0,29.89,SW,228,2.0,4.0,24,-99.99,,,-99.99,,2013-06-05 10:33:00,
2013-06-05 04:42:00,78.0,38.0,29.89,SW,228,2.0,4.0,24,-99.99,,,-99.99,,2013-06-05 10:42:00,
2013-06-05 04:52:00,78.0,39.0,29.89,West,262,1.0,4.0,25,-99.99,,,-99.99,,2013-06-05 10:52:00,
2013-06-05 05:02:00,77.0,40.0,29.90,SW,231,1.0,4.0,27,-99.99,,,-99.99,,2013-06-05 11:02:00,
2013-06-05 05:12:00,77.0,40.0,29.90,SW,231,1.0,4.0,27,-99.99,,,-99.99,,2013-06-05 11:12:00,
2013-06-05 05:22:00,76.0,41.0,29.90,North,0,0.0,0.0,28,-99.99,,,-99.99,,2013-06-05 11:22:00,
2013-06-05 05:32:00,74.0,41.0,29.90,North,0,0.0,0.0,31,-99.99,,,-99.99,,2013-06-05 11:32:00,
2013-06-05 05:42:00,74.0,41.0,29.90,North,0,0.0,0.0,31,-99.99,,,-99.99,,2013-06-05 11:42:00,
2013-06-05 05:52:00,73.0,43.0,29.90,North,0,0.0,0.0,34,-99.99,,,-99.99,,2013-06-05 11:52:00,
2013-06-05 06:02:00,74.0,45.0,29.91,North,0,0.0,0.0,36,-99.99,,,-99.99,,2013-06-05 12:02:00,
2013-06-05 06:12:00,74.0,45.0,29.91,North,0,0.0,0.0,36,-99.99,,,-99.99,,2013-06-05 12:12:00,
2013-06-05 06:22:00,74.0,44.0,29.91,North,0,0.0,0.0,34,-99.99,,,-99.99,,2013-06-05 12:22:00,
2013-06-05 06:32:00,73.0,44.0,29.91,North,0,0.0,0.0,36,-99.99,,,-99.99,,2013-06-05 12:32:00,
2013-06-05 06:44:00,73.0,44.0,29.91,North,0,0.0,0.0,36,-99.99,,,-99.99,,2013-06-05 12:44:00,
2013-06-05 06:52:00,73.0,44.0,29.92,North,0,0.0,0.0,35,-99.99,,,-99.99,,2013-06-05 12:52:00,
2013-06-05 07:02:00,74.0,42.0,29.93,North,0,0.0,0.0,32,-99.99,,,-99.99,,2013-06-05 13:02:00,
2013-06-05 07:12:00,74.0,42.0,29.93,North,0,0.0,0.0,32,-99.99,,,-99.99,,2013-06-05 13:12:00,
2013-06-05 07:22:00,75.0,42.0,29.93,North,0,0.0,0.0,31,-99.99,,,-99.99,,2013-06-05 13:22:00,
2013-06-05 07:32:00,76.0,44.0,29.93,North,0,0.0,0.0,32,-99.99,,,-99.99,,2013-06-05 13:32:00,
2013-06-05 07:42:00,76.0,41.0,29.94,North,0,0.0,0.0,28,-99.99,,,-99.99,,2013-06-05 13:42:00,
2013-06-05 07:52:00,76.0,41.0,29.94,North,0,0.0,0.0,28,-99.99,,,-99.99,,2013-06-05 13:52:00,
2013-06-05 08:02:00,78.0,40.0,29.94,SSE,165,4.0,7.0,26,-99.99,,,-99.99,,2013-06-05 14:02:00,
2013-06-05 08:12:00,78.0,40.0,29.94,SSE,165,4.0,7.0,26,-99.99,,,-99.99,,2013-06-05 14:12:00,
2013-06-05 08:22:00,79.0,42.0,29.94,SSW,207,0.0,3.0,27,-99.99,,,-99.99,,2013-06-05 14:22:00,
2013-06-05 08:32:00,79.0,41.0,29.95,SW,214,2.0,6.0,26,-99.99,,,-99.99,,2013-06-05 14:32:00,
2013-06-05 08:42:00,79.0,41.0,29.95,SW,214,2.0,6.0,26,-99.99,,,-99.99,,2013-06-05 14:42:00,
2013-06-05 08:52:00,80.0,40.0,29.95,SSE,165,0.0,5.0,24,-99.99,,,-99.99,,2013-06-05 14:52:00,
2013-06-05 09:02:00,81.0,39.0,29.96,South,173,3.0,6.0,22,-99.99,,,-99.99,,2013-06-05 15:02:00,
2013-06-05 09:12:00,81.0,39.0,29.96,South,173,3.0,6.0,22,-99.99,,,-99.99,,2013-06-05 15:12:00,
2013-06-05 09:22:00,82.0,41.0,29.96,South,169,2.0,4.0,23,-99.99,,,-99.99,,2013-06-05 15:22:00,
2013-06-05 09:33:00,84.0,40.0,29.96,SE,128,3.0,7.0,21,-99.99,,,-99.99,,2013-06-05 15:33:00,
2013-06-05 09:42:00,85.0,38.0,29.95,South,176,3.0,6.0,19,-99.99,,,-99.99,,2013-06-05 15:42:00,
2013-06-05 09:53:00,85.0,38.0,29.95,South,176,3.0,6.0,19,-99.99,,,-99.99,,2013-06-05 15:53:00,
2013-06-05 10:03:00,86.0,38.0,29.96,South,169,3.0,6.0,18,-99.99,,,-99.99,,2013-06-05 16:03:00,
2013-06-05 10:12:00,86.0,38.0,29.96,South,169,3.0,6.0,18,-99.99,,,-99.99,,2013-06-05 16:12:00,
2013-06-05 10:22:00,87.0,38.0,29.96,SE,142,3.0,6.0,18,-99.99,,,-99.99,,2013-06-05 16:22:00,
2013-06-05 10:32:00,88.0,36.0,29.96,North,0,0.0,0.0,16,-99.99,,,-99.99,,2013-06-05 16:32:00,
2013-06-05 10:42:00,89.0,38.0,29.96,SSW,207,2.0,6.0,17,-99.99,,,-99.99,,2013-06-05 16:42:00,
2013-06-05 10:54:00,89.0,38.0,29.96,SSW,207,2.0,6.0,17,-99.99,,,-99.99,,2013-06-05 16:54:00,
2013-06-05 11:02:00,91.0,37.0,29.96,ESE,122,1.0,5.0,15,-99.99,,,-99.99,,2013-06-05 17:02:00,
2013-06-05 11:12:00,91.0,37.0,29.96,ESE,122,1.0,5.0,15,-99.99,,,-99.99,,2013-06-05 17:12:00,
2013-06-05 11:22:00,91.0,37.0,29.96,SW,217,2.0,6.0,15,-99.99,,,-99.99,,2013-06-05 17:22:00,
2013-06-05 11:32:00,92.0,30.0,29.95,NW,304,4.0,9.0,11,-99.99,,,-99.99,,2013-06-05 17:32:00,
2013-06-05 11:42:00,93.0,28.0,29.95,West,270,5.0,12.0,10,-99.99,,,-99.99,,2013-06-05 17:42:00,
2013-06-05 11:52:00,93.0,28.0,29.95,West,270,5.0,12.0,10,-99.99,,,-99.99,,2013-06-05 17:52:00,
2013-06-05 12:02:00,93.0,28.0,29.94,WNW,288,6.0,14.0,10,-99.99,,,-99.99,,2013-06-05 18:02:00,
2013-06-05 12:12:00,93.0,28.0,29.94,WNW,288,6.0,14.0,10,-99.99,,,-99.99,,2013-06-05 18:12:00,
2013-06-05 12:22:00,93.0,28.0,29.94,West,278,7.0,14.0,10,-99.99,,,-99.99,,2013-06-05 18:22:00,
2013-06-05 12:32:00,93.0,31.0,29.93,West,271,5.0,11.0,11,-99.99,,,-99.99,,2013-06-05 18:32:00,
2013-06-05 12:42:00,93.0,31.0,29.93,WNW,294,8.0,15.0,11,-99.99,,,-99.99,,2013-06-05 18:42:00,
2013-06-05 12:52:00,93.0,31.0,29.93,WNW,294,8.0,15.0,11,-99.99,,,-99.99,,2013-06-05 18:52:00,
2013-06-05 13:02:00,93.0,31.0,29.92,WNW,284,5.0,13.0,11,-99.99,,,-99.99,,2013-06-05 19:02:00,
2013-06-05 13:12:00,93.0,31.0,29.92,WNW,284,5.0,13.0,11,-99.99,,,-99.99,,2013-06-05 19:12:00,
2013-06-05 13:23:00,93.0,28.0,29.92,WSW,249,4.0,11.0,10,-99.99,,,-99.99,,2013-06-05 19:23:00,
2013-06-05 13:32:00,94.0,29.0,29.91,West,269,3.0,8.0,10,-99.99,,,-99.99,,2013-06-05 19:32:00,
2013-06-05 13:42:00,94.0,29.0,29.91,West,269,3.0,8.0,10,-99.99,,,-99.99,,2013-06-05 19:42:00,
2013-06-05 13:52:00,94.0,29.0,29.91,West,277,7.0,14.0,10,-99.99,,,-99.99,,2013-06-05 19:52:00,
2013-06-05 14:02:00,94.0,29.0,29.90,SSE,159,5.0,11.0,10,-99.99,,,-99.99,,2013-06-05 20:02:00,
2013-06-05 14:12:00,95.0,27.0,29.90,SW,231,8.0,14.0,9,-99.99,,,-99.99,,2013-06-05 20:12:00,
2013-06-05 14:22:00,95.0,27.0,29.90,SW,231,8.0,14.0,9,-99.99,,,-99.99,,2013-06-05 20:22:00,
2013-06-05 14:32:00,95.0,24.0,29.88,West,260,8.0,16.0,8,-99.99,,,-99.99,,2013-06-05 20:32:00,
2013-06-05 14:42:00,95.0,24.0,29.88,SW,226,8.0,17.0,8,-99.99,,,-99.99,,2013-06-05 20:42:00,
2013-06-05 14:52:00,95.0,24.0,29.88,SW,226,8.0,17.0,8,-99.99,,,-99.99,,2013-06-05 20:52:00,
2013-06-05 15:02:00,96.0,28.0,29.87,WSW,252,7.0,13.0,9,-99.99,,,-99.99,,2013-06-05 21:02:00,
2013-06-05 15:12:00,95.0,24.0,29.87,West,276,8.0,20.0,8,-99.99,,,-99.99,,2013-06-05 21:12:00,
2013-06-05 15:22:00,95.0,24.0,29.87,West,276,8.0,20.0,8,-99.99,,,-99.99,,2013-06-05 21:22:00,
2013-06-05 15:33:00,96.0,25.0,29.86,West,270,5.0,10.0,8,-99.99,,,-99.99,,2013-06-05 21:33:00,
2013-06-05 15:43:00,96.0,25.0,29.86,West,280,8.0,15.0,8,-99.99,,,-99.99,,2013-06-05 21:43:00,
2013-06-05 15:53:00,96.0,25.0,29.86,West,280,8.0,15.0,8,-99.99,,,-99.99,,2013-06-05 21:53:00,
2013-06-05 16:02:00,96.0,25.0,29.85,WNW,302,4.0,7.0,8,-99.99,,,-99.99,,2013-06-05 22:02:00,
2013-06-05 16:12:00,96.0,25.0,29.85,WNW,302,4.0,7.0,8,-99.99,,,-99.99,,2013-06-05 22:12:00,
2013-06-05 16:22:00,96.0,22.0,29.85,WSW,248,10.0,19.0,7,-99.99,,,-99.99,,2013-06-05 22:22:00,
2013-06-05 16:32:00,96.0,22.0,29.84,West,267,5.0,9.0,7,-99.99,,,-99.99,,2013-06-05 22:32:00,
2013-06-05 16:42:00,97.0,23.0,29.83,WSW,253,6.0,12.0,7,-99.99,,,-99.99,,2013-06-05 22:42:00,
2013-06-05 16:52:00,97.0,23.0,29.83,WSW,253,6.0,12.0,7,-99.99,,,-99.99,,2013-06-05 22:52:00,
2013-06-05 17:02:00,96.0,25.0,29.82,WSW,248,5.0,11.0,8,-99.99,,,-99.99,,2013-06-05 23:02:00,
2013-06-05 17:12:00,96.0,25.0,29.82,SSW,201,6.0,12.0,8,-99.99,,,-99.99,,2013-06-05 23:12:00,
2013-06-05 17:22:00,96.0,25.0,29.82,SSW,201,6.0,12.0,8,-99.99,,,-99.99,,2013-06-05 23:22:00,
2013-06-05 17:32:00,96.0,25.0,29.81,West,277,7.0,15.0,8,-99.99,,,-99.99,,2013-06-05 23:32:00,
2013-06-05 17:42:00,96.0,25.0,29.81,West,277,7.0,15.0,8,-99.99,,,-99.99,,2013-06-05 23:42:00,
2013-06-05 17:53:00,96.0,25.0,29.80,WSW,253,4.0,9.0,8,-99.99,,,-99.99,,2013-06-05 23:53:00,
2013-06-05 18:02:00,96.0,22.0,29.80,SSW,195,7.0,13.0,7,-99.99,,,-99.99,,2013-06-06 00:02:00,
2013-06-05 18:12:00,96.0,22.0,29.80,SSW,195,7.0,13.0,7,-99.99,,,-99.99,,2013-06-06 00:12:00,
2013-06-05 18:22:00,96.0,22.0,29.80,WSW,239,7.0,12.0,7,-99.99,,,-99.99,,2013-06-06 00:22:00,
2013-06-05 18:32:00,96.0,25.0,29.79,West,267,8.0,14.0,8,-99.99,,,-99.99,,2013-06-06 00:32:00,
2013-06-05 18:42:00,96.0,25.0,29.79,West,267,8.0,14.0,8,-99.99,,,-99.99,,2013-06-06 00:42:00,
2013-06-05 18:52:00,95.0,21.0,29.79,West,264,6.0,12.0,7,-99.99,,,-99.99,,2013-06-06 00:52:00,
2013-06-05 19:02:00,95.0,24.0,29.80,West,273,5.0,9.0,8,-99.99,,,-99.99,,2013-06-06 01:02:00,
2013-06-05 19:12:00,95.0,24.0,29.80,West,273,5.0,9.0,8,-99.99,,,-99.99,,2013-06-06 01:12:00,
2013-06-05 19:22:00,95.0,21.0,29.79,WSW,256,5.0,14.0,7,-99.99,,,-99.99,,2013-06-06 01:22:00,
2013-06-05 19:32:00,94.0,24.0,29.79,WSW,248,6.0,10.0,8,-99.99,,,-99.99,,2013-06-06 01:32:00,
2013-06-05 19:42:00,94.0,24.0,29.80,WNW,288,6.0,10.0,8,-99.99,,,-99.99,,2013-06-06 01:42:00,
2013-06-05 19:52:00,94.0,24.0,29.80,WNW,288,6.0,10.0,8,-99.99,,,-99.99,,2013-06-06 01:52:00,
2013-06-05 20:02:00,93.0,23.0,29.80,SW,232,5.0,11.0,8,-99.99,,,-99.99,,2013-06-06 02:02:00,
2013-06-05 20:12:00,93.0,23.0,29.80,SW,232,5.0,11.0,8,-99.99,,,-99.99,,2013-06-06 02:12:00,
2013-06-05 20:22:00,92.0,22.0,29.80,WNW,291,5.0,11.0,8,-99.99,,,-99.99,,2013-06-06 02:22:00,
2013-06-05 20:32:00,92.0,25.0,29.81,WSW,257,3.0,7.0,9,-99.99,,,-99.99,,2013-06-06 02:32:00,
2013-06-05 20:42:00,92.0,25.0,29.81,WSW,257,3.0,7.0,9,-99.99,,,-99.99,,2013-06-06 02:42:00,
2013-06-05 20:52:00,92.0,25.0,29.81,WSW,257,3.0,7.0,9,-99.99,,,-99.99,,2013-06-06 02:52:00,
2013-06-05 21:02:00,90.0,28.0,29.82,West,264,1.0,4.0,11,-99.99,,,-99.99,,2013-06-06 03:02:00,
2013-06-05 21:12:00,90.0,28.0,29.82,West,264,1.0,4.0,11,-99.99,,,-99.99,,2013-06-06 03:12:00,
2013-06-05 21:22:00,89.0,30.0,29.82,West,267,1.0,3.0,12,-99.99,,,-99.99,,2013-06-06 03:22:00,
2013-06-05 21:33:00,86.0,35.0,29.83,North,0,0.0,0.0,16,-99.99,,,-99.99,,2013-06-06 03:33:00,
2013-06-05 21:43:00,86.0,35.0,29.83,North,0,0.0,0.0,16,-99.99,,,-99.99,,2013-06-06 03:43:00,
2013-06-05 21:52:00,84.0,33.0,29.83,North,0,0.0,0.0,16,-99.99,,,-99.99,,2013-06-06 03:52:00,
2013-06-05 22:03:00,82.0,38.0,29.84,North,0,0.0,0.0,21,-99.99,,,-99.99,,2013-06-06 04:03:00,
2013-06-05 22:23:00,82.0,33.0,29.84,NW,304,2.0,8.0,17,-99.99,,,-99.99,,2013-06-06 04:23:00,
2013-06-05 22:33:00,84.0,30.0,29.85,WNW,287,1.0,4.0,14,-99.99,,,-99.99,,2013-06-06 04:33:00,
2013-06-05 22:42:00,84.0,28.0,29.85,NW,304,1.0,4.0,13,-99.99,,,-99.99,,2013-06-06 04:42:00,
2013-06-05 22:53:00,84.0,28.0,29.85,NW,304,1.0,4.0,13,-99.99,,,-99.99,,2013-06-06 04:53:00,
2013-06-05 23:02:00,83.0,27.0,29.86,NNW,346,1.0,3.0,13,-99.99,,,-99.99,,2013-06-06 05:02:00,
2013-06-05 23:12:00,83.0,27.0,29.86,NNW,346,1.0,3.0,13,-99.99,,,-99.99,,2013-06-06 05:12:00,
2013-06-05 23:22:00,83.0,31.0,29.86,North,0,0.0,0.0,15,-99.99,,,-99.99,,2013-06-06 05:22:00,
2013-06-05 23:32:00,80.0,38.0,29.86,North,0,0.0,0.0,22,-99.99,,,-99.99,,2013-06-06 05:32:00,
2013-06-05 23:52:00,79.0,36.0,29.86,North,0,0.0,0.0,21,-99.99,,,-99.99,,2013-06-06 05:52:00,